Time;durP1;ratioP1;P1;durP2;ratioP2;P2;SDS_P1;SDS_P2;PMS_P1;PMS_P2;Temp;Humidity;BMP_temperature;BMP_pressure;BME280_temperature;BME280_humidity;BME280_pressure;Samples;Min_cycle;Max_cycle;Signal;HPM_P1;HPM_P2
2022/06/12 00:59:50;;;;;;;9.95;3.15;;;;;;;21.09;57.81;102276.16;5912440;23;20028;31
2022/06/12 01:10:06;;;;;;;12.95;3.10;;;;;;;21.09;58.40;102282.25;5249287;23;20057;-83
2022/06/12 01:12:37;;;;;;;16.55;3.40;;;;;;;21.09;58.51;102279.66;4884451;29;20071;-82
2022/06/12 01:15:10;;;;;;;12.50;3.42;;;;;;;21.11;57.29;102283.13;4903593;29;20027;-82
2022/06/12 01:17:38;;;;;;;13.98;3.17;;;;;;;21.11;57.37;102277.03;4887619;29;20024;-83
2022/06/12 01:20:08;;;;;;;14.20;3.20;;;;;;;21.11;57.37;102279.66;4887298;29;20053;-83
2022/06/12 01:22:50;;;;;;;11.45;2.90;;;;;;;21.11;57.41;102280.53;4873111;29;20420;-79
2022/06/12 01:25:28;;;;;;;12.95;3.20;;;;;;;21.11;58.11;102277.91;4867361;29;20053;-79
2022/06/12 01:28:10;;;;;;;14.88;3.40;;;;;;;21.11;57.29;102275.28;4883744;29;20035;-79
2022/06/12 01:30:56;;;;;;;15.40;3.42;;;;;;;21.11;57.04;102275.28;4866753;29;20120;-79
2022/06/12 01:33:53;;;;;;;14.05;3.55;;;;;;;21.13;57.26;102270.91;4884373;29;20036;-79
2022/06/12 01:36:31;;;;;;;15.15;3.60;;;;;;;21.11;57.06;102275.28;4862667;29;20037;-79
2022/06/12 01:39:37;;;;;;;11.93;3.25;;;;;;;21.11;57.13;102270.06;4867249;29;20060;-79
2022/06/12 01:42:13;;;;;;;14.00;3.08;;;;;;;21.09;56.96;102266.56;4867409;29;20052;-79
2022/06/12 01:45:05;;;;;;;14.77;3.50;;;;;;;21.12;57.51;102265.69;4871806;29;20029;-79
2022/06/12 01:47:37;;;;;;;12.27;3.28;;;;;;;21.12;56.51;102271.81;4867406;29;20033;-79
2022/06/12 01:50:13;;;;;;;13.73;3.30;;;;;;;21.12;57.32;102268.28;4866369;29;20043;-79
2022/06/12 01:52:55;;;;;;;14.18;3.45;;;;;;;21.09;57.34;102273.56;4883344;29;20032;-79
2022/06/12 01:55:27;;;;;;;12.82;3.22;;;;;;;21.07;56.76;102265.69;4882904;29;20500;-79
2022/06/12 01:58:01;;;;;;;13.48;3.50;;;;;;;21.10;57.05;102270.94;4866492;29;20033;-79
2022/06/12 02:00:28;;;;;;;18.02;3.40;;;;;;;21.09;58.03;102277.03;4883620;29;20045;-79
2022/06/12 02:03:10;;;;;;;18.05;3.55;;;;;;;21.08;56.91;102270.06;4850570;29;20029;-79
2022/06/12 02:05:47;;;;;;;12.88;3.85;;;;;;;21.08;58.05;102272.69;4883515;29;20149;-79
2022/06/12 02:08:21;;;;;;;10.95;3.40;;;;;;;21.08;56.72;102267.44;4867216;29;20036;-79
2022/06/12 02:13:11;;;;;;;14.23;3.30;;;;;;;21.11;57.34;102271.81;4866841;29;20075;-79
2022/06/12 02:13:52;;;;;;;13.57;3.60;;;;;;;21.11;57.03;102264.81;4882946;29;20365;-79
2022/06/12 02:16:23;;;;;;;15.93;3.90;;;;;;;21.11;56.60;102267.44;4866609;29;20124;-79
2022/06/12 02:18:54;;;;;;;13.02;3.38;;;;;;;21.12;57.09;102265.69;4883790;29;20065;-79
2022/06/12 02:21:41;;;;;;;11.48;3.20;;;;;;;21.13;57.75;102262.19;4866574;29;20029;-79
2022/06/12 02:24:15;;;;;;;15.88;3.30;;;;;;;21.11;57.08;102254.34;4867253;29;20077;-79
2022/06/12 02:27:01;;;;;;;16.48;3.67;;;;;;;21.11;56.81;102254.34;4873760;29;20116;-79
2022/06/12 02:29:47;;;;;;;12.20;3.58;;;;;;;21.10;56.70;102251.72;4867099;29;20037;-79
2022/06/12 02:32:21;;;;;;;13.63;3.80;;;;;;;21.08;56.85;102262.22;4867946;29;20049;-80
2022/06/12 02:35:01;;;;;;;12.93;3.50;;;;;;;21.11;57.34;102264.81;4884855;29;20560;-79
2022/06/12 02:37:33;;;;;;;10.57;3.33;;;;;;;21.11;57.28;102261.34;4867773;29;20021;-79
2022/06/12 02:40:05;;;;;;;10.43;3.30;;;;;;;21.14;57.01;102259.59;4868299;29;20025;-79
2022/06/12 02:42:37;;;;;;;16.92;3.72;;;;;;;21.13;56.36;102256.97;4868820;29;20036;-79
2022/06/12 02:45:02;;;;;;;10.25;2.97;;;;;;;21.11;56.49;102250.88;4868978;29;20033;-79
2022/06/12 02:47:32;;;;;;;13.70;3.47;;;;;;;21.11;56.99;102256.09;4868405;29;20040;-79
2022/06/12 02:49:59;;;;;;;13.48;3.83;;;;;;;21.12;56.64;102263.97;4882981;29;20070;-82
2022/06/12 02:52:48;;;;;;;11.57;3.63;;;;;;;21.13;56.78;102264.81;4883647;29;20052;-81
2022/06/12 02:55:24;;;;;;;15.88;3.75;;;;;;;21.11;56.93;102264.81;4880714;29;20036;-80
2022/06/12 02:58:09;;;;;;;11.02;3.20;;;;;;;21.10;56.60;102268.31;4893363;29;20503;-80
2022/06/12 03:00:40;;;;;;;10.60;3.00;;;;;;;21.13;56.62;102256.97;4878479;29;20057;-80
2022/06/12 03:03:18;;;;;;;12.32;3.22;;;;;;;21.11;56.53;102256.97;4880526;29;20120;-81
2022/06/12 03:05:49;;;;;;;10.52;2.67;;;;;;;21.12;57.02;102258.72;4877113;29;20060;-80
2022/06/12 03:08:19;;;;;;;8.27;2.70;;;;;;;21.12;56.50;102260.44;4879315;29;20029;-80
2022/06/12 03:10:50;;;;;;;14.77;3.50;;;;;;;21.11;56.41;102259.56;4873308;29;20120;-80
2022/06/12 03:13:17;;;;;;;11.13;3.35;;;;;;;21.10;56.61;102252.63;4874592;29;20029;-81
2022/06/12 03:16:23;;;;;;;11.40;3.25;;;;;;;21.12;56.70;102258.72;4875915;29;20073;-80
2022/06/12 03:18:56;;;;;;;11.27;3.20;;;;;;;21.12;56.41;102252.59;4873639;29;20069;-81
2022/06/12 03:21:35;;;;;;;13.20;3.47;;;;;;;21.11;56.36;102254.34;4873398;29;20036;-81
2022/06/12 03:24:03;;;;;;;12.77;3.10;;;;;;;21.13;56.34;102255.22;4875275;29;20037;-81
2022/06/12 03:26:56;;;;;;;10.95;3.33;;;;;;;21.11;56.44;102253.47;4876657;29;20033;-81
2022/06/12 03:30:06;;;;;;;11.95;3.15;;;;;;;21.13;56.80;102257.84;4881422;29;20025;-81
2022/06/12 03:32:56;;;;;;;10.60;2.90;;;;;;;21.15;56.65;102253.47;4868341;29;20068;-81
2022/06/12 03:35:34;;;;;;;13.10;3.38;;;;;;;21.14;56.47;102263.94;4899965;29;20013;-82
2022/06/12 03:38:18;;;;;;;13.25;3.40;;;;;;;21.15;56.64;102268.31;4882164;29;20032;-81
2022/06/12 03:41:01;;;;;;;11.40;2.80;;;;;;;21.16;56.40;102275.28;4881139;29;20029;-82
2022/06/12 03:43:41;;;;;;;11.60;2.97;;;;;;;21.19;56.58;102275.28;4881407;29;20060;-81
2022/06/12 03:46:16;;;;;;;8.80;3.13;;;;;;;21.20;56.47;102268.28;4881979;29;20041;-82
2022/06/12 03:48:54;;;;;;;14.02;3.20;;;;;;;21.21;56.67;102267.41;4877940;29;20041;-81
2022/06/12 03:51:35;;;;;;;15.88;3.35;;;;;;;21.19;56.85;102264.81;4882724;29;20029;-81
2022/06/12 03:54:15;;;;;;;9.65;2.95;;;;;;;21.21;56.56;102268.31;4880375;29;20033;-81
2022/06/12 04:00:07;;;;;;;11.32;3.13;;;;;;;21.20;56.59;102271.78;4899949;29;20039;-80
2022/06/12 04:02:34;;;;;;;9.13;3.00;;;;;;;21.22;56.00;102274.41;4870441;29;20037;-80
2022/06/12 04:05:02;;;;;;;9.02;2.75;;;;;;;21.19;56.55;102277.00;4876211;29;20040;-80
2022/06/12 04:07:30;;;;;;;10.93;2.53;;;;;;;21.19;56.05;102272.66;4877011;29;20028;-80
2022/06/12 04:09:59;;;;;;;9.55;3.10;;;;;;;21.17;56.08;102270.03;4877594;29;20420;-81
2022/06/12 04:12:28;;;;;;;10.63;3.13;;;;;;;21.20;56.57;102270.91;4877962;29;20028;-81
2022/06/12 04:15:02;;;;;;;8.38;3.03;;;;;;;21.23;55.81;102276.13;4882422;29;20105;-81
2022/06/12 04:17:27;;;;;;;9.43;2.85;;;;;;;21.23;56.02;102284.88;4884368;29;20029;-81
2022/06/12 04:19:59;;;;;;;13.80;3.10;;;;;;;21.25;56.40;102275.28;4850935;29;20088;-80
2022/06/12 04:22:32;;;;;;;11.48;3.10;;;;;;;21.25;55.80;102272.66;4854801;29;20081;-81
2022/06/12 04:25:05;;;;;;;10.80;2.97;;;;;;;21.27;56.14;102272.63;4883458;29;20041;-81
2022/06/12 04:27:40;;;;;;;11.43;3.25;;;;;;;21.26;56.49;102271.78;4882899;29;20033;-82
2022/06/12 04:30:19;;;;;;;10.82;3.05;;;;;;;21.26;56.15;102273.53;4884235;29;20033;-81
2022/06/12 04:32:45;;;;;;;12.82;2.92;;;;;;;21.28;55.58;102279.63;4886678;29;20033;-81
2022/06/12 04:35:11;;;;;;;9.68;2.75;;;;;;;21.28;56.89;102283.13;4865341;29;20522;-80
2022/06/12 04:37:36;;;;;;;8.35;2.78;;;;;;;21.32;55.76;102277.00;4862626;29;20036;-81
2022/06/12 04:40:05;;;;;;;11.35;3.13;;;;;;;21.31;56.57;102284.84;4876866;29;20041;-81
2022/06/12 04:42:32;;;;;;;7.28;2.90;;;;;;;21.36;55.87;102286.59;4877122;29;20036;-81
2022/06/12 04:45:00;;;;;;;9.52;2.70;;;;;;;21.45;55.71;102279.59;4876869;29;20029;-81
2022/06/12 04:47:28;;;;;;;8.80;2.60;;;;;;;21.54;56.48;102284.84;4879087;29;20370;-80
2022/06/12 04:49:55;;;;;;;10.15;2.85;;;;;;;21.60;56.96;102287.44;4896324;29;20032;-81
2022/06/12 04:52:23;;;;;;;8.23;2.92;;;;;;;21.66;57.39;102282.16;4880498;29;20029;-82
2022/06/12 04:54:49;;;;;;;9.30;3.10;;;;;;;21.70;57.80;102289.13;4868877;29;20037;-81
2022/06/12 04:57:16;;;;;;;7.60;2.83;;;;;;;21.71;58.47;102293.50;4881923;29;20511;-81
2022/06/12 04:59:47;;;;;;;8.65;2.88;;;;;;;21.72;58.40;102282.13;4881725;29;20048;-81
2022/06/12 05:02:13;;;;;;;8.15;2.75;;;;;;;21.76;58.75;102275.13;4879636;29;20032;-81
2022/06/12 05:04:39;;;;;;;9.57;2.80;;;;;;;21.78;58.81;102281.25;4877817;29;20025;-81
2022/06/12 05:07:07;;;;;;;5.35;2.45;;;;;;;21.80;58.62;102289.06;4894289;29;20064;-81
2022/06/12 05:09:35;;;;;;;8.38;2.70;;;;;;;21.86;58.23;102289.06;4863183;29;20089;-81
2022/06/12 05:12:00;;;;;;;8.32;2.90;;;;;;;21.88;58.14;102289.94;4879991;29;20021;-81
2022/06/12 05:14:26;;;;;;;7.70;2.70;;;;;;;21.84;57.08;102296.06;4885142;29;20120;-80
2022/06/12 05:16:59;;;;;;;9.15;2.97;;;;;;;21.80;58.14;102282.13;4879240;29;20029;-83
2022/06/12 05:19:28;;;;;;;8.05;2.67;;;;;;;21.77;58.40;102290.88;4879122;29;20032;-81
2022/06/12 05:21:55;;;;;;;8.88;3.03;;;;;;;21.79;57.77;102296.06;4877081;29;20037;-81
2022/06/12 05:24:24;;;;;;;6.60;2.70;;;;;;;21.77;58.09;102306.59;4881554;29;20029;-81
2022/06/12 05:26:52;;;;;;;8.32;2.53;;;;;;;21.73;58.69;102302.22;4877854;29;20032;-81
2022/06/12 05:29:23;;;;;;;9.75;2.78;;;;;;;21.71;57.88;102310.94;4877711;29;20037;-81
2022/06/12 05:31:49;;;;;;;9.50;2.65;;;;;;;21.70;58.91;102304.84;4892672;29;20029;-81
2022/06/12 05:34:16;;;;;;;8.98;2.60;;;;;;;21.79;58.22;102303.94;4875320;29;20029;-81
2022/06/12 05:55:02;;;;;;;9.48;3.65;;;;;;;22.05;53.45;102313.44;5498180;23;20049;-82
2022/06/12 05:57:27;;;;;;;8.80;2.80;;;;;;;22.07;54.95;102316.94;4890161;29;20033;-83
2022/06/12 05:59:53;;;;;;;7.75;2.60;;;;;;;22.08;54.34;102316.03;4889403;29;20073;-85
2022/06/12 06:02:18;;;;;;;8.65;2.58;;;;;;;22.11;53.63;102311.66;4889746;29;20029;-85
2022/06/12 06:07:49;;;;;;;8.88;3.00;;;;;;;22.19;54.03;102317.75;5002149;23;20068;-84
2022/06/12 06:10:18;;;;;;;8.25;2.90;;;;;;;22.24;52.89;102312.50;4884654;29;20025;-85
2022/06/12 06:12:44;;;;;;;8.50;2.72;;;;;;;22.26;52.55;102318.59;4869180;29;20045;-83
2022/06/12 06:15:10;;;;;;;11.27;3.00;;;;;;;22.27;53.23;102322.09;4883909;29;20038;-85
2022/06/12 06:20:15;;;;;;;9.50;3.15;;;;;;;22.28;53.30;102337.84;5429265;23;20047;-84
2022/06/12 06:22:40;;;;;;;8.43;3.00;;;;;;;22.31;53.01;102321.19;4886909;29;20101;-86
2022/06/12 06:25:07;;;;;;;9.52;2.70;;;;;;;22.35;52.50;102333.41;4871106;29;20060;-83
2022/06/12 06:27:33;;;;;;;9.55;2.80;;;;;;;22.36;52.91;102325.56;4880773;29;20021;-80
2022/06/12 06:29:58;;;;;;;9.60;2.80;;;;;;;22.38;52.33;102334.28;4856560;29;20055;-81
2022/06/12 06:32:24;;;;;;;13.57;2.80;;;;;;;22.41;52.23;102337.75;4857309;29;20120;-79
2022/06/12 06:34:49;;;;;;;8.23;3.10;;;;;;;22.37;50.65;102336.91;4859899;29;20037;-82
2022/06/12 06:37:16;;;;;;;8.48;2.72;;;;;;;22.38;51.20;102338.63;4859548;29;20489;-81
2022/06/12 06:39:42;;;;;;;8.27;2.92;;;;;;;22.42;51.34;102342.13;4871035;29;20025;-81
2022/06/12 06:42:10;;;;;;;10.15;3.25;;;;;;;22.43;51.54;102342.13;4872036;29;20085;-81
2022/06/12 06:47:20;;;;;;;13.65;3.50;;;;;;;22.45;51.19;102340.38;4878440;29;20093;-83
2022/06/12 06:49:46;;;;;;;11.85;3.60;;;;;;;22.43;50.33;102343.84;4880355;29;20081;-82
2022/06/12 06:52:12;;;;;;;9.07;3.17;;;;;;;22.47;50.66;102350.81;4871065;29;20044;-81
2022/06/12 06:54:38;;;;;;;13.65;3.40;;;;;;;22.52;50.27;102355.19;4855335;29;20033;-84
2022/06/12 06:57:04;;;;;;;10.20;3.38;;;;;;;22.53;50.41;102351.66;4875620;29;20056;-82
2022/06/12 06:59:30;;;;;;;9.32;3.25;;;;;;;22.56;50.38;102350.78;4859619;29;20056;-81
2022/06/12 07:01:55;;;;;;;9.65;3.08;;;;;;;22.57;49.81;102357.75;4836939;29;20061;-80
2022/06/12 07:04:21;;;;;;;9.77;2.95;;;;;;;22.58;49.55;102359.50;4852033;29;20473;-80
2022/06/12 07:06:47;;;;;;;10.27;3.08;;;;;;;22.65;48.85;102369.09;4852811;29;20033;-81
2022/06/12 07:09:12;;;;;;;11.80;3.40;;;;;;;22.72;49.43;102370.78;4834707;29;20064;-81
2022/06/12 07:11:38;;;;;;;7.90;2.95;;;;;;;22.79;48.15;102363.72;4834926;29;20128;-82
2022/06/12 07:14:03;;;;;;;13.25;3.25;;;;;;;22.83;48.68;102369.84;4866095;29;20025;-81
2022/06/12 07:16:31;;;;;;;10.80;2.90;;;;;;;22.85;49.02;102362.84;4850412;29;20037;-82
2022/06/12 07:18:56;;;;;;;10.98;3.05;;;;;;;22.89;48.52;102364.56;4849954;29;20036;-82
2022/06/12 07:21:22;;;;;;;7.05;2.70;;;;;;;22.88;48.59;102363.66;4862189;29;20054;-82
2022/06/12 07:23:48;;;;;;;9.32;3.15;;;;;;;22.90;49.59;102368.91;4862758;29;20078;-82
2022/06/12 07:26:26;;;;;;;12.68;3.10;;;;;;;22.89;48.90;102356.69;4861569;29;20033;-84
2022/06/12 07:28:53;;;;;;;8.02;3.05;;;;;;;22.97;49.33;102373.22;4861617;29;20477;-82
2022/06/12 07:31:20;;;;;;;11.98;3.05;;;;;;;22.94;49.84;102357.50;4871960;29;20025;-83
2022/06/12 07:33:46;;;;;;;10.48;2.80;;;;;;;22.94;49.12;102363.63;4849331;29;20041;-83
2022/06/12 07:36:15;;;;;;;9.32;2.60;;;;;;;22.93;50.19;102366.25;4861648;29;20030;-82
2022/06/12 07:38:41;;;;;;;8.40;3.22;;;;;;;22.85;49.74;102368.94;4861018;29;20033;-81
2022/06/12 07:41:10;;;;;;;9.95;2.70;;;;;;;22.89;50.03;102373.28;4861062;29;20113;-80
2022/06/12 07:43:37;;;;;;;6.55;2.90;;;;;;;22.86;50.10;102378.53;4860880;29;20033;-80
2022/06/12 07:46:05;;;;;;;7.40;2.88;;;;;;;22.92;49.64;102380.25;4860798;29;20417;-80
2022/06/12 07:48:33;;;;;;;8.05;2.70;;;;;;;22.97;48.06;102374.09;4860580;29;20051;-80
2022/06/12 07:51:02;;;;;;;8.07;3.13;;;;;;;22.96;49.46;102376.75;4845473;29;20029;-79
2022/06/12 07:53:28;;;;;;;8.85;2.90;;;;;;;22.92;50.04;102377.63;4860468;29;20044;-79
2022/06/12 07:55:55;;;;;;;7.60;2.72;;;;;;;22.92;48.70;102375.88;4845500;29;20041;-80
2022/06/12 07:58:25;;;;;;;9.80;2.80;;;;;;;22.88;49.75;102373.28;4846049;29;20070;-79
2022/06/12 08:00:54;;;;;;;7.50;2.83;;;;;;;22.87;49.98;102369.81;4860720;29;20397;-79
2022/06/12 08:03:19;;;;;;;7.80;2.78;;;;;;;22.93;47.81;102368.88;4860635;29;20030;-80
2022/06/12 08:05:45;;;;;;;8.15;2.90;;;;;;;22.93;49.20;102368.88;4830151;29;20485;-79
2022/06/12 08:08:10;;;;;;;7.93;2.55;;;;;;;22.94;49.57;102365.38;4860461;29;20030;-79
2022/06/12 08:10:36;;;;;;;7.72;2.60;;;;;;;22.96;48.25;102367.09;4830053;29;20441;-78
2022/06/12 08:13:06;;;;;;;8.68;3.00;;;;;;;22.95;48.34;102374.97;4865251;29;20006;-78
2022/06/12 08:15:46;;;;;;;7.38;2.70;;;;;;;22.95;49.31;102374.97;4864270;29;20387;-83
2022/06/12 08:18:13;;;;;;;8.45;3.13;;;;;;;22.96;48.49;102367.09;4860746;29;20119;-82
2022/06/12 08:20:45;;;;;;;6.85;2.78;;;;;;;22.96;47.24;102368.88;4861107;29;20053;-80
2022/06/12 08:23:26;;;;;;;6.03;2.60;;;;;;;22.98;47.71;102370.59;4862675;29;20473;-81
2022/06/12 08:26:05;;;;;;;6.97;2.78;;;;;;;23.01;47.31;102369.72;4860970;29;20037;-82
2022/06/12 08:28:36;;;;;;;9.90;2.90;;;;;;;23.03;48.24;102377.59;4861399;29;20041;-80
2022/06/12 08:31:05;;;;;;;9.88;2.65;;;;;;;23.04;47.17;102367.09;4861351;29;20025;-80
2022/06/12 08:33:31;;;;;;;8.05;2.95;;;;;;;23.06;47.44;102370.56;4860862;29;20507;-80
2022/06/12 08:35:56;;;;;;;8.57;2.90;;;;;;;23.07;46.22;102376.69;4861859;29;20062;-80
2022/06/12 08:38:21;;;;;;;9.40;2.85;;;;;;;23.05;48.08;102376.69;4846399;29;20029;-81
2022/06/12 08:40:57;;;;;;;6.32;2.58;;;;;;;23.04;46.97;102382.84;4846451;29;20037;-85
2022/06/12 08:43:31;;;;;;;8.35;2.70;;;;;;;23.05;46.04;102387.19;4861603;29;20038;-81
2022/06/12 08:46:06;;;;;;;6.88;2.55;;;;;;;23.04;47.44;102385.47;4863598;29;20032;-85
2022/06/12 08:48:55;;;;;;;7.53;3.17;;;;;;;23.05;47.87;102383.69;4864062;29;20061;-79
2022/06/12 08:51:31;;;;;;;8.05;3.17;;;;;;;22.98;46.80;102385.47;4862816;29;20468;-83
2022/06/12 08:54:04;;;;;;;10.15;3.08;;;;;;;22.98;47.70;102380.22;4862961;29;20388;-83
2022/06/12 08:56:41;;;;;;;7.38;2.60;;;;;;;23.00;47.11;102370.63;4864550;29;20064;-84
2022/06/12 08:59:11;;;;;;;7.18;3.00;;;;;;;23.03;46.77;102369.72;4861467;29;20481;-84
2022/06/12 09:01:41;;;;;;;7.18;3.13;;;;;;;23.02;46.68;102373.22;4865672;29;20033;-84
2022/06/12 09:04:12;;;;;;;5.53;2.42;;;;;;;22.99;47.19;102376.69;4834650;29;20025;-84
2022/06/12 09:06:44;;;;;;;6.82;2.72;;;;;;;22.97;46.57;102373.22;4862696;29;20037;-83
2022/06/12 09:09:32;;;;;;;5.38;2.22;;;;;;;22.93;47.02;102380.25;4868122;29;20029;-83
2022/06/12 09:12:17;;;;;;;8.43;2.83;;;;;;;22.96;45.54;102377.59;4867425;29;20395;-83
2022/06/12 09:14:58;;;;;;;9.13;2.88;;;;;;;22.97;46.65;102374.09;4865947;29;20097;-85
2022/06/12 09:17:50;;;;;;;7.43;2.40;;;;;;;22.95;46.07;102380.22;4865827;29;20082;-83
2022/06/12 09:20:49;;;;;;;6.55;2.55;;;;;;;22.94;47.54;102382.00;4864836;29;20046;-84
2022/06/12 09:23:15;;;;;;;8.48;2.80;;;;;;;22.94;46.61;102374.13;4866525;29;20033;-84
2022/06/12 09:25:46;;;;;;;10.07;2.83;;;;;;;22.95;46.24;102377.59;4865413;29;20058;-83
2022/06/12 09:28:31;;;;;;;8.10;2.70;;;;;;;22.95;46.94;102369.72;4863681;29;20034;-81
2022/06/12 09:31:12;;;;;;;7.80;2.83;;;;;;;22.92;46.47;102372.38;4864742;29;20044;-83
2022/06/12 09:34:08;;;;;;;7.78;2.60;;;;;;;22.95;46.82;102370.63;4866384;29;20500;-84
2022/06/12 09:36:52;;;;;;;13.82;3.15;;;;;;;23.02;46.75;102373.22;4869797;29;20044;-78
2022/06/12 09:43:04;;;;;;;15.57;4.80;;;;;;;22.54;50.48;102365.66;4870821;29;20078;-85
2022/06/12 10:18:12;;;;;;;16.48;3.70;;;;;;;21.03;51.22;102388.72;4927763;23;20307;-78
2022/06/12 10:20:45;;;;;;;13.27;4.07;;;;;;;21.01;54.62;102393.94;4871996;29;20021;-80
2022/06/12 10:23:11;;;;;;;21.77;4.28;;;;;;;20.90;50.89;102393.91;4863707;29;20033;-83
2022/06/12 10:25:49;;;;;;;11.55;3.95;;;;;;;21.02;52.58;102398.31;4871264;29;20025;-80
2022/06/12 10:28:29;;;;;;;14.07;3.72;;;;;;;20.96;55.61;102393.94;4871864;29;20040;-80
2022/06/12 10:31:10;;;;;;;13.45;3.55;;;;;;;21.02;56.69;102400.06;4871322;29;20029;-80
2022/06/12 10:33:41;;;;;;;12.98;3.67;;;;;;;21.05;55.91;102406.16;4873565;29;20029;-80
2022/06/12 10:36:23;;;;;;;12.52;4.15;;;;;;;21.13;57.56;102395.69;4888479;29;20025;-80
2022/06/12 10:38:49;;;;;;;13.27;3.63;;;;;;;21.14;56.54;102395.72;4869963;29;20051;-80
2022/06/12 10:41:25;;;;;;;15.57;4.00;;;;;;;21.20;57.70;102399.19;4856567;29;20104;-80
2022/06/12 10:43:53;;;;;;;17.27;4.38;;;;;;;21.03;56.41;102393.94;4887472;29;20385;-80
2022/06/12 10:46:23;;;;;;;15.65;5.03;;;;;;;20.85;54.90;102392.19;4870181;29;20021;-80
2022/06/12 10:49:16;;;;;;;15.82;4.32;;;;;;;20.89;55.20;102397.44;4887703;29;20029;-79
2022/06/12 10:51:42;;;;;;;17.42;4.55;;;;;;;20.80;52.43;102400.03;4872864;29;20115;-79
2022/06/12 10:54:16;;;;;;;16.10;4.47;;;;;;;20.69;52.69;102379.09;4856585;29;20066;-80
2022/06/12 10:57:13;;;;;;;17.58;4.90;;;;;;;20.85;53.73;102386.94;4872430;29;20075;-79
2022/06/12 11:00:01;;;;;;;14.40;4.18;;;;;;;20.92;56.75;102383.47;4869567;29;20025;-78
2022/06/12 11:02:42;;;;;;;14.10;4.32;;;;;;;20.89;55.22;102379.09;4867971;29;20039;-79
2022/06/12 11:05:27;;;;;;;14.65;4.82;;;;;;;20.95;55.46;102386.97;4866603;29;20461;-79
2022/06/12 11:08:04;;;;;;;18.48;4.50;;;;;;;20.96;54.88;102380.84;4868209;29;20029;-78
2022/06/12 11:10:43;;;;;;;13.07;3.90;;;;;;;20.94;52.11;102386.97;4887715;29;20025;-79
2022/06/12 11:13:33;;;;;;;14.13;3.90;;;;;;;20.77;53.71;102383.44;4888698;29;20060;-79
2022/06/12 11:16:20;;;;;;;15.52;3.80;;;;;;;20.75;52.32;102376.47;4887480;29;20077;-78
2022/06/12 11:19:06;;;;;;;18.48;4.45;;;;;;;20.73;52.38;102377.31;4866654;29;20033;-77
2022/06/12 11:21:42;;;;;;;14.48;4.40;;;;;;;20.87;54.13;102374.75;4847795;29;20037;-78
2022/06/12 11:24:18;;;;;;;12.90;4.22;;;;;;;20.73;51.12;102379.94;4884327;29;20492;-78
2022/06/12 11:27:02;;;;;;;13.93;3.97;;;;;;;20.65;51.85;102382.56;4867593;29;20044;-77
2022/06/12 11:29:40;;;;;;;12.95;4.00;;;;;;;20.64;54.17;102390.41;4867072;29;20552;-77
2022/06/12 11:32:26;;;;;;;14.07;4.00;;;;;;;20.52;50.88;102388.59;4867120;29;20560;-77
2022/06/12 11:35:27;;;;;;;10.82;4.05;;;;;;;20.49;53.13;102386.84;4885092;29;20040;-81
2022/06/12 11:38:08;;;;;;;14.07;4.03;;;;;;;20.48;51.37;102377.25;4866409;29;20025;-77
2022/06/12 11:40:44;;;;;;;13.45;4.00;;;;;;;20.58;54.47;102382.53;4866399;29;20385;-78
2022/06/12 11:43:23;;;;;;;15.43;4.32;;;;;;;20.69;55.90;102389.53;4867062;29;20025;-78
2022/06/12 11:46:16;;;;;;;12.93;3.85;;;;;;;20.62;52.36;102379.06;4865578;29;20028;-78
2022/06/12 11:49:03;;;;;;;14.95;3.90;;;;;;;20.58;50.64;102377.28;4882450;29;20104;-78
2022/06/12 11:51:42;;;;;;;10.05;3.67;;;;;;;20.60;53.14;102366.00;4866480;29;20037;-78
2022/06/12 11:54:43;;;;;;;13.98;3.75;;;;;;;20.64;56.46;102374.69;4868062;29;20037;-78
2022/06/12 11:57:25;;;;;;;13.52;3.30;;;;;;;20.50;51.11;102378.13;4901802;29;20021;-82
2022/06/12 11:59:54;;;;;;;12.48;3.63;;;;;;;20.42;53.21;102379.84;4887270;29;20013;-82
2022/06/12 12:02:42;;;;;;;13.27;4.03;;;;;;;20.47;51.79;102372.91;5093291;23;20073;-83
2022/06/12 12:05:34;;;;;;;10.52;3.80;;;;;;;20.62;54.83;102371.22;4881706;29;20045;-81
2022/06/12 12:08:24;;;;;;;14.45;3.80;;;;;;;20.45;49.99;102369.41;4877324;29;20033;-79
2022/06/12 12:11:02;;;;;;;16.65;3.85;;;;;;;20.51;52.85;102372.03;4870176;29;20025;-79
2022/06/12 12:13:32;;;;;;;12.43;4.00;;;;;;;20.47;50.88;102367.66;4872856;29;20037;-79
2022/06/12 12:16:07;;;;;;;11.70;3.90;;;;;;;20.50;55.61;102375.50;4879402;29;20032;-80
2022/06/12 12:18:43;;;;;;;14.35;3.83;;;;;;;20.62;54.64;102369.50;4871344;29;20025;-79
2022/06/12 12:21:41;;;;;;;18.90;4.25;;;;;;;20.62;54.58;102374.72;4871831;29;20391;-80
2022/06/12 12:24:14;;;;;;;16.80;4.20;;;;;;;20.64;54.03;102364.25;4856488;29;20036;-80
2022/06/12 12:26:42;;;;;;;16.45;4.05;;;;;;;20.63;54.07;102360.75;4868245;29;20028;-80
2022/06/12 12:29:15;;;;;;;13.00;3.63;;;;;;;20.78;55.20;102365.16;4867325;29;20131;-80
2022/06/12 12:31:42;;;;;;;11.82;3.67;;;;;;;20.75;55.58;102366.03;4870798;29;20028;-79
2022/06/12 12:34:09;;;;;;;15.40;4.00;;;;;;;20.68;53.53;102372.09;4871198;29;20036;-79
2022/06/12 12:42:27;;;;;;;12.80;3.97;;;;;;;20.80;55.42;102373.88;4891779;29;20044;-80
2022/06/12 12:44:53;;;;;;;15.02;4.50;;;;;;;20.89;56.22;102371.25;4873236;29;20096;-80
2022/06/12 12:47:28;;;;;;;13.88;4.45;;;;;;;20.85;53.10;102379.09;4869104;29;20468;-79
2022/06/12 12:50:10;;;;;;;15.45;4.05;;;;;;;20.79;52.03;102371.25;4891028;29;20033;-80
2022/06/12 12:52:57;;;;;;;13.57;4.25;;;;;;;20.77;53.61;102375.59;4872022;29;20037;-79
2022/06/12 12:55:25;;;;;;;13.43;4.18;;;;;;;20.81;56.80;102366.88;4894024;29;20029;-80
2022/06/12 12:57:52;;;;;;;13.93;4.18;;;;;;;20.74;52.91;102363.38;4876057;29;20036;-80
2022/06/12 13:00:17;;;;;;;12.00;4.32;;;;;;;20.77;54.49;102368.63;4876827;29;20044;-81
2022/06/12 13:02:54;;;;;;;15.60;4.38;;;;;;;20.72;51.13;102368.63;4874633;29;20053;-81
2022/06/12 13:05:38;;;;;;;14.95;4.72;;;;;;;20.59;52.56;102371.22;4879068;29;20032;-80
2022/06/12 13:08:40;;;;;;;12.30;4.07;;;;;;;20.60;52.11;102370.31;4877728;29;20029;-79
2022/06/12 13:11:27;;;;;;;16.10;4.47;;;;;;;20.73;54.72;102367.75;4871219;29;20036;-80
2022/06/12 13:14:27;;;;;;;13.60;4.85;;;;;;;20.71;55.85;102368.63;4876630;29;20127;-81
2022/06/12 13:16:53;;;;;;;16.40;4.97;;;;;;;20.60;51.17;102366.00;4875728;29;20067;-81
2022/06/12 13:19:58;;;;;;;18.10;4.40;;;;;;;20.67;54.67;102369.50;4879562;29;20012;-80
2022/06/12 13:22:49;;;;;;;14.60;4.53;;;;;;;20.68;52.81;102363.38;4840445;29;20054;-80
2022/06/12 13:25:35;;;;;;;18.85;4.80;;;;;;;20.56;52.55;102356.34;4823208;29;20034;-80
2022/06/12 13:28:01;;;;;;;15.38;4.70;;;;;;;20.67;52.49;102359.91;4862364;29;20053;-79
2022/06/12 13:30:31;;;;;;;14.90;4.55;;;;;;;20.81;55.87;102362.53;4859433;29;20048;-79
2022/06/12 13:33:07;;;;;;;13.75;4.28;;;;;;;20.68;51.38;102366.84;4874067;29;20029;-79
2022/06/12 13:35:42;;;;;;;16.58;5.63;;;;;;;20.66;51.78;102360.75;4872996;29;20052;-80
2022/06/12 13:38:20;;;;;;;16.20;5.00;;;;;;;20.61;50.93;102359.88;4877812;29;20032;-80
2022/06/12 13:41:04;;;;;;;13.73;4.50;;;;;;;20.52;50.61;102368.53;4875551;29;20061;-80
2022/06/12 13:43:39;;;;;;;14.65;5.18;;;;;;;20.45;51.26;102350.25;4876349;29;20068;-79
2022/06/12 13:46:30;;;;;;;18.95;4.80;;;;;;;20.45;51.39;102351.09;4894051;29;20032;-79
2022/06/12 13:48:58;;;;;;;21.58;5.40;;;;;;;20.42;50.66;102355.44;4885413;29;20028;-81
2022/06/12 13:51:29;;;;;;;18.42;5.45;;;;;;;20.42;51.30;102358.91;4879874;29;20053;-80
2022/06/12 13:54:17;;;;;;;18.73;5.50;;;;;;;20.49;52.24;102350.25;4872325;29;20029;-80
2022/06/12 13:56:48;;;;;;;18.42;5.18;;;;;;;20.52;53.31;102352.00;4871155;29;20540;-80
2022/06/12 14:21:18;;;;;;;16.33;5.13;;;;;;;21.18;54.52;102333.75;5249946;23;20064;-94
2022/06/12 14:23:50;;;;;;;15.10;5.13;;;;;;;21.08;54.51;102321.56;4874871;29;20067;-79
2022/06/12 14:26:31;;;;;;;17.53;4.97;;;;;;;21.04;53.78;102328.53;4870767;29;20129;-81
2022/06/12 14:28:57;;;;;;;19.48;5.20;;;;;;;21.07;54.85;102325.88;4869813;29;20057;-81
2022/06/12 14:31:28;;;;;;;18.23;5.15;;;;;;;21.14;53.88;102326.75;4870457;29;20120;-81
2022/06/12 14:34:19;;;;;;;14.40;4.95;;;;;;;21.20;53.43;102329.38;4857710;29;20041;-82